Time;durP1;ratioP1;P1;durP2;ratioP2;P2;SDS_P1;SDS_P2;PMS_P1;PMS_P2;Temp;Humidity;BMP_temperature;BMP_pressure;BME280_temperature;BME280_humidity;BME280_pressure;Samples;Min_cycle;Max_cycle;Signal;HPM_P1;HPM_P2
2022/04/30 00:01:06;;;;;;;12.07;6.68;;;;;;;9.08;100.00;91273.16;5010718;28;20033;-64
2022/04/30 00:03:32;;;;;;;12.85;8.10;;;;;;;9.06;100.00;91272.66;5011219;28;20475;-64
2022/04/30 00:05:57;;;;;;;12.02;7.22;;;;;;;9.08;100.00;91277.69;5011100;28;20022;-64
2022/04/30 00:08:23;;;;;;;12.75;6.88;;;;;;;8.95;100.00;91269.38;5010999;28;20400;-64
2022/04/30 00:10:50;;;;;;;15.00;7.78;;;;;;;8.90;100.00;91272.13;4993442;28;20025;-64
2022/04/30 00:13:16;;;;;;;19.33;7.38;;;;;;;8.91;100.00;91283.53;5010669;28;20018;-64
2022/04/30 00:15:42;;;;;;;10.40;6.72;;;;;;;8.87;100.00;91270.06;5010767;28;20108;-64
2022/04/30 00:18:09;;;;;;;11.50;7.07;;;;;;;8.81;100.00;91262.44;5010701;28;20117;-64
2022/04/30 00:20:38;;;;;;;13.00;6.93;;;;;;;8.78;100.00;91274.44;5010800;28;20072;-64
2022/04/30 00:23:05;;;;;;;13.32;6.57;;;;;;;8.84;100.00;91269.84;5010646;28;20026;-64
2022/04/30 00:25:31;;;;;;;14.88;7.47;;;;;;;8.77;100.00;91267.53;4992982;28;20042;-64
2022/04/30 00:27:57;;;;;;;12.45;6.78;;;;;;;8.78;100.00;91271.00;5010811;28;20579;-64
2022/04/30 00:30:22;;;;;;;13.77;6.90;;;;;;;8.85;100.00;91271.44;5010674;28;20045;-65
2022/04/30 00:32:48;;;;;;;14.38;7.85;;;;;;;8.85;100.00;91274.88;5010470;28;20515;-64
2022/04/30 00:35:14;;;;;;;14.88;7.20;;;;;;;8.88;100.00;91268.19;5010732;28;20052;-64
2022/04/30 00:37:40;;;;;;;14.85;8.00;;;;;;;8.82;100.00;91264.81;5010601;28;20041;-64
2022/04/30 00:40:07;;;;;;;14.32;7.80;;;;;;;8.70;100.00;91267.13;5008107;28;20030;-65
2022/04/30 00:42:32;;;;;;;12.95;6.70;;;;;;;8.65;100.00;91270.63;5010660;28;20044;-64
2022/04/30 00:44:58;;;;;;;13.70;7.82;;;;;;;8.60;100.00;91269.94;5010643;28;20391;-64
2022/04/30 00:47:25;;;;;;;11.73;6.47;;;;;;;8.58;100.00;91280.03;5010053;28;20033;-64
2022/04/30 00:49:51;;;;;;;4.15;3.75;;;;;;;8.53;100.00;91266.88;5010706;28;20128;-64
2022/04/30 00:52:17;;;;;;;4.68;4.20;;;;;;;8.60;100.00;91270.72;5010811;28;20434;-64
2022/04/30 00:54:47;;;;;;;4.15;3.40;;;;;;;8.63;100.00;91277.31;5011598;28;20034;-64
2022/04/30 00:57:18;;;;;;;2.53;2.25;;;;;;;8.66;100.00;91266.13;5012239;28;20052;-64
2022/04/30 00:59:44;;;;;;;6.18;4.03;;;;;;;8.61;100.00;91266.19;5010272;28;20038;-65
2022/04/30 01:02:11;;;;;;;4.45;2.90;;;;;;;8.63;100.00;91272.00;5009992;28;20041;-65
2022/04/30 01:04:36;;;;;;;5.32;3.35;;;;;;;8.68;100.00;91275.38;5010392;28;20478;-65
2022/04/30 01:07:06;;;;;;;3.42;3.03;;;;;;;8.80;100.00;91277.56;5010376;28;20042;-65
2022/04/30 01:09:33;;;;;;;2.05;1.90;;;;;;;8.69;100.00;91258.41;5010503;28;20038;-65
2022/04/30 01:12:03;;;;;;;3.90;3.33;;;;;;;8.75;100.00;91271.56;5010277;28;20046;-65
2022/04/30 01:14:31;;;;;;;3.28;3.08;;;;;;;8.85;100.00;91272.22;5007923;28;20087;-65
2022/04/30 01:16:58;;;;;;;3.60;2.67;;;;;;;8.89;100.00;91264.47;5009683;28;20721;-64
2022/04/30 01:19:24;;;;;;;2.53;2.33;;;;;;;8.76;100.00;91255.38;5010097;28;20038;-64
2022/04/30 01:21:51;;;;;;;2.88;2.65;;;;;;;8.80;100.00;91272.28;4992572;28;20412;-64
2022/04/30 01:24:22;;;;;;;3.25;2.95;;;;;;;8.76;100.00;91260.66;5009962;28;20060;-64
2022/04/30 01:26:51;;;;;;;3.50;2.70;;;;;;;8.82;100.00;91262.16;5007668;28;20042;-65
2022/04/30 01:29:18;;;;;;;2.33;2.13;;;;;;;8.77;100.00;91266.75;5010227;28;20046;-64
2022/04/30 01:37:25;;;;;;;2.40;2.20;;;;;;;8.69;100.00;91249.66;5008806;28;20053;-65
2022/04/30 01:39:59;;;;;;;2.65;2.28;;;;;;;8.73;100.00;91250.66;5007796;28;20041;-65
2022/04/30 01:42:29;;;;;;;2.50;2.22;;;;;;;8.73;100.00;91258.59;5009861;28;20471;-65
2022/04/30 01:44:57;;;;;;;5.70;3.97;;;;;;;8.72;100.00;91256.25;5009809;28;20084;-64
2022/04/30 01:47:23;;;;;;;1.63;1.52;;;;;;;8.68;100.00;91264.00;5009812;28;20042;-64
2022/04/30 01:49:49;;;;;;;2.85;2.65;;;;;;;8.64;100.00;91262.97;5009802;28;20116;-64
2022/04/30 01:52:15;;;;;;;4.13;3.60;;;;;;;8.66;100.00;91258.94;5009907;28;20034;-64
2022/04/30 01:54:41;;;;;;;6.10;3.40;;;;;;;8.64;100.00;91257.66;5009984;28;20112;-65
2022/04/30 01:57:06;;;;;;;3.53;2.42;;;;;;;8.69;100.00;91258.41;5009895;28;20692;-64
2022/04/30 01:59:32;;;;;;;3.58;1.98;;;;;;;8.64;100.00;91249.72;5009843;28;20432;-64
2022/04/30 02:01:59;;;;;;;2.33;2.05;;;;;;;8.59;100.00;91250.59;5009729;28;20041;-64
2022/04/30 02:04:25;;;;;;;3.63;3.15;;;;;;;8.59;100.00;91255.88;5009828;28;20034;-64
2022/04/30 02:06:51;;;;;;;2.05;1.85;;;;;;;8.54;100.00;91258.63;5012147;28;20114;-64
2022/04/30 02:09:18;;;;;;;2.78;2.58;;;;;;;8.43;100.00;91254.53;5013454;28;20048;-64
2022/04/30 02:11:45;;;;;;;2.42;2.28;;;;;;;8.52;100.00;91254.66;5013423;28;20041;-64
2022/04/30 02:14:15;;;;;;;3.78;3.42;;;;;;;8.39;100.00;91256.97;5013473;28;20026;-63
2022/04/30 02:16:42;;;;;;;3.72;2.53;;;;;;;8.45;100.00;91256.88;5013465;28;20033;-64
2022/04/30 02:19:08;;;;;;;6.20;3.33;;;;;;;8.43;100.00;91254.53;5010980;28;20117;-64
2022/04/30 02:21:35;;;;;;;2.70;2.50;;;;;;;8.40;100.00;91250.59;5013199;28;20034;-64
2022/04/30 02:24:02;;;;;;;3.63;3.33;;;;;;;8.38;100.00;91252.75;5014785;28;20061;-65
2022/04/30 02:26:28;;;;;;;5.07;2.88;;;;;;;8.32;100.00;91245.09;5023889;28;20038;-64
2022/04/30 02:28:57;;;;;;;3.33;3.10;;;;;;;8.36;100.00;91249.59;5023191;28;20116;-64
2022/04/30 02:31:25;;;;;;;2.38;1.77;;;;;;;8.36;100.00;91251.44;5021722;28;20104;-64
2022/04/30 02:33:56;;;;;;;4.38;3.00;;;;;;;8.30;100.00;91252.56;5023610;28;20029;-63
2022/04/30 02:36:26;;;;;;;4.13;3.80;;;;;;;8.29;100.00;91240.38;5023841;28;20527;-64
2022/04/30 02:38:56;;;;;;;3.00;2.30;;;;;;;8.31;100.00;91243.53;5022720;28;20041;-64
2022/04/30 02:41:22;;;;;;;3.70;3.05;;;;;;;8.39;100.00;91233.13;5021644;28;20534;-65
2022/04/30 02:43:52;;;;;;;1.75;1.65;;;;;;;8.32;100.00;91229.19;5023635;28;20048;-64
2022/04/30 02:46:21;;;;;;;2.03;1.92;;;;;;;8.36;100.00;91246.94;5023455;28;20491;-64
2022/04/30 02:48:47;;;;;;;2.72;2.55;;;;;;;8.46;100.00;91238.03;5021839;28;20593;-64
2022/04/30 02:51:15;;;;;;;2.25;2.05;;;;;;;8.58;100.00;91243.69;5022655;28;20120;-64
2022/04/30 02:53:41;;;;;;;4.47;4.07;;;;;;;8.68;100.00;91232.94;5023619;28;20496;-64
2022/04/30 02:56:09;;;;;;;4.28;3.88;;;;;;;8.73;100.00;91241.91;5021733;28;20104;-65
2022/04/30 03:01:19;;;;;;;5.32;4.78;;;;;;;8.91;100.00;91236.56;5023271;28;20119;-66
2022/04/30 03:03:46;;;;;;;5.07;4.65;;;;;;;8.89;100.00;91237.94;5021176;28;20030;-66
2022/04/30 03:06:13;;;;;;;6.32;4.60;;;;;;;8.95;100.00;91236.75;5022642;28;20044;-66
2022/04/30 03:08:40;;;;;;;5.28;3.92;;;;;;;8.72;100.00;91224.41;5023171;28;20495;-66
2022/04/30 03:11:07;;;;;;;7.75;3.72;;;;;;;8.76;100.00;91238.66;5003641;28;20474;-66
2022/04/30 03:13:34;;;;;;;5.93;4.07;;;;;;;8.79;100.00;91232.78;5022406;28;20048;-65
2022/04/30 03:21:42;;;;;;;3.92;3.53;;;;;;;8.84;100.00;91245.97;5023260;28;20088;-66
2022/04/30 03:21:46;;;;;;;3.00;2.47;;;;;;;8.66;100.00;91234.28;5022060;28;20591;-65
2022/04/30 03:24:18;;;;;;;4.40;3.25;;;;;;;8.64;100.00;91242.53;5020762;28;20089;-65
2022/04/30 03:26:48;;;;;;;4.40;3.60;;;;;;;8.65;100.00;91248.63;5024197;28;20030;-66
2022/04/30 03:29:15;;;;;;;1.55;1.45;;;;;;;8.58;100.00;91246.34;5024834;28;20038;-65
2022/04/30 03:31:41;;;;;;;2.58;2.28;;;;;;;8.54;100.00;91248.00;5024281;28;20030;-65
2022/04/30 03:34:12;;;;;;;1.92;1.83;;;;;;;8.58;100.00;91256.19;5016477;28;20518;-65
2022/04/30 03:36:38;;;;;;;3.03;2.47;;;;;;;8.68;100.00;91250.72;5016481;28;20045;-66
2022/04/30 03:39:04;;;;;;;2.85;2.45;;;;;;;8.70;100.00;91252.00;5016335;28;20488;-66
2022/04/30 03:41:30;;;;;;;2.38;2.28;;;;;;;8.69;100.00;91249.66;5016173;28;20041;-65
2022/04/30 03:43:55;;;;;;;6.10;2.47;;;;;;;8.70;100.00;91253.88;5016207;28;20083;-67
2022/04/30 03:46:21;;;;;;;5.10;3.00;;;;;;;8.67;100.00;91254.44;5017001;28;20038;-66
2022/04/30 03:48:51;;;;;;;3.67;2.70;;;;;;;8.68;100.00;91256.81;5015963;28;20544;-65
2022/04/30 03:51:17;;;;;;;2.60;2.40;;;;;;;8.70;100.00;91252.00;5016076;28;20060;-66
2022/04/30 03:53:43;;;;;;;1.90;1.80;;;;;;;8.77;100.00;91251.63;5016303;28;20109;-66
2022/04/30 03:56:09;;;;;;;2.70;2.50;;;;;;;8.84;100.00;91252.06;5015867;28;20034;-65
2022/04/30 03:58:35;;;;;;;2.20;1.92;;;;;;;8.90;100.00;91255.41;5015657;28;20048;-66
2022/04/30 04:01:00;;;;;;;3.40;2.17;;;;;;;8.98;100.00;91252.88;5023530;28;20423;-66
2022/04/30 04:03:26;;;;;;;1.90;1.35;;;;;;;8.96;100.00;91244.41;5024411;28;20088;-66
2022/04/30 04:05:52;;;;;;;4.03;2.95;;;;;;;9.03;100.00;91259.19;5024093;28;20037;-66
2022/04/30 04:08:20;;;;;;;3.53;3.28;;;;;;;8.97;100.00;91255.81;5023730;28;20121;-66
2022/04/30 04:10:45;;;;;;;1.77;1.67;;;;;;;8.94;100.00;91261.72;5023847;28;20091;-66
2022/04/30 04:18:39;;;;;;;1.83;1.67;;;;;;;9.00;100.00;91260.56;5023266;28;20045;-66
2022/04/30 04:21:04;;;;;;;5.15;3.25;;;;;;;9.18;100.00;91264.25;5023537;28;20030;-66
2022/04/30 04:25:58;;;;;;;1.80;1.70;;;;;;;9.23;100.00;91251.69;5023693;28;20037;-66
2022/04/30 04:26:18;;;;;;;2.55;1.77;;;;;;;9.22;100.00;91249.31;5023173;28;20077;-65
2022/04/30 04:28:43;;;;;;;3.97;2.90;;;;;;;9.31;100.00;91244.91;5023061;28;20573;-66
2022/04/30 04:31:09;;;;;;;4.32;2.65;;;;;;;9.50;100.00;91256.25;5023738;28;20061;-65
2022/04/30 04:33:34;;;;;;;4.10;3.20;;;;;;;9.62;100.00;91255.75;5024163;28;20025;-65
2022/04/30 04:35:59;;;;;;;2.45;2.25;;;;;;;9.76;100.00;91255.75;5023146;28;20415;-65
2022/04/30 04:38:25;;;;;;;2.72;2.53;;;;;;;9.81;100.00;91253.81;5023504;28;20040;-65
2022/04/30 04:40:50;;;;;;;2.95;2.75;;;;;;;9.77;100.00;91252.81;5023421;28;20069;-65
2022/04/30 04:43:16;;;;;;;7.28;3.13;;;;;;;9.70;100.00;91255.09;5023739;28;20092;-67
2022/04/30 04:45:43;;;;;;;3.03;2.83;;;;;;;9.76;100.00;91261.84;5022905;28;20045;-67
2022/04/30 04:48:09;;;;;;;2.05;1.88;;;;;;;9.75;100.00;91260.28;5023782;28;20101;-65
2022/04/30 04:50:35;;;;;;;2.70;2.53;;;;;;;9.83;100.00;91262.28;5023679;28;20025;-65
2022/04/30 04:53:00;;;;;;;3.78;2.35;;;;;;;9.93;100.00;91257.81;5022749;28;20037;-66
2022/04/30 04:55:26;;;;;;;5.10;2.75;;;;;;;10.00;100.00;91255.56;5023359;28;20102;-66
2022/04/30 04:57:51;;;;;;;2.80;2.60;;;;;;;9.92;100.00;91262.34;5023419;28;20574;-66
2022/04/30 05:00:17;;;;;;;3.80;3.47;;;;;;;9.84;100.00;91261.19;5005683;28;20506;-65
2022/04/30 05:02:43;;;;;;;2.88;2.67;;;;;;;9.90;100.00;91260.00;5022653;28;20033;-66
2022/04/30 05:05:10;;;;;;;2.97;2.55;;;;;;;9.88;100.00;91266.69;5023584;28;20109;-65
2022/04/30 05:07:35;;;;;;;4.07;3.58;;;;;;;9.88;100.00;91267.47;5023353;28;20116;-66
2022/04/30 05:10:01;;;;;;;2.92;2.17;;;;;;;9.90;100.00;91269.84;5022705;28;20182;-66
2022/04/30 05:12:26;;;;;;;2.72;2.53;;;;;;;9.96;100.00;91270.53;5014000;28;20046;-66
2022/04/30 05:14:53;;;;;;;4.18;3.47;;;;;;;10.04;100.00;91275.16;5014077;28;20484;-66
2022/04/30 05:17:18;;;;;;;4.00;3.28;;;;;;;10.14;100.00;91253.69;5015033;28;20041;-66
2022/04/30 05:19:44;;;;;;;4.70;2.83;;;;;;;10.26;100.00;91262.00;5016559;28;20046;-66
2022/04/30 05:22:09;;;;;;;3.30;2.78;;;;;;;10.41;100.00;91267.00;5017675;28;20495;-66
2022/04/30 05:24:35;;;;;;;3.40;3.03;;;;;;;10.85;100.00;91262.00;5017567;28;20049;-66
2022/04/30 05:27:01;;;;;;;3.65;2.80;;;;;;;10.77;100.00;91268.84;5016527;28;20034;-67
2022/04/30 05:29:27;;;;;;;3.05;2.67;;;;;;;10.91;100.00;91274.91;5017427;28;20045;-67
2022/04/30 05:31:52;;;;;;;3.13;2.92;;;;;;;10.91;100.00;91266.16;5017302;28;20423;-66
2022/04/30 05:34:18;;;;;;;2.13;1.92;;;;;;;11.40;100.00;91259.91;5016456;28;20034;-66
2022/04/30 05:36:44;;;;;;;3.17;2.88;;;;;;;12.24;100.00;91264.34;4999981;28;20049;-66
2022/04/30 05:39:09;;;;;;;3.67;2.65;;;;;;;13.03;100.00;91256.13;5016754;28;20033;-65
2022/04/30 05:41:35;;;;;;;5.07;2.40;;;;;;;12.98;100.00;91258.19;5020285;28;20038;-67
2022/04/30 05:44:00;;;;;;;3.20;2.85;;;;;;;13.02;100.00;91256.44;5020909;28;20034;-65
2022/04/30 05:46:27;;;;;;;4.55;3.35;;;;;;;12.86;100.00;91264.91;5021820;28;20025;-64
2022/04/30 05:48:52;;;;;;;2.50;2.33;;;;;;;12.78;100.00;91259.56;5022012;28;20048;-64
2022/04/30 05:51:18;;;;;;;4.03;2.10;;;;;;;12.56;100.00;91274.63;5020940;28;20038;-64
2022/04/30 05:53:43;;;;;;;2.30;2.13;;;;;;;12.58;100.00;91269.75;5021437;28;20114;-65
2022/04/30 05:56:08;;;;;;;3.30;3.00;;;;;;;13.10;100.00;91271.69;5020507;28;20032;-64
2022/04/30 05:58:34;;;;;;;2.53;2.33;;;;;;;13.97;100.00;91270.44;5018547;28;20466;-64
2022/04/30 06:01:00;;;;;;;3.78;2.58;;;;;;;14.54;100.00;91264.72;5022358;28;20069;-64
2022/04/30 06:03:25;;;;;;;2.15;2.05;;;;;;;15.72;100.00;91261.75;5027375;28;20392;-64
2022/04/30 06:05:51;;;;;;;2.67;2.47;;;;;;;15.11;100.00;91258.78;5022182;28;20417;-67
2022/04/30 06:08:16;;;;;;;4.00;2.50;;;;;;;13.88;100.00;91258.97;5022493;28;20836;-64
2022/04/30 06:10:41;;;;;;;2.50;2.08;;;;;;;13.32;100.00;91262.75;5020597;28;20046;-65
2022/04/30 06:13:07;;;;;;;1.67;1.58;;;;;;;13.17;100.00;91266.66;5020421;28;20045;-65
2022/04/30 06:15:32;;;;;;;1.63;1.52;;;;;;;13.35;100.00;91260.22;5021776;28;20443;-64
2022/04/30 06:17:58;;;;;;;3.15;2.30;;;;;;;14.26;100.00;91261.66;5021443;28;20054;-66
2022/04/30 06:20:23;;;;;;;3.33;3.05;;;;;;;15.92;100.00;91257.44;5019250;28;20033;-66
2022/04/30 06:22:49;;;;;;;1.60;1.55;;;;;;;17.38;100.00;91270.03;5020379;28;20035;-65
2022/04/30 06:25:14;;;;;;;2.30;2.10;;;;;;;17.71;92.91;91260.97;5025115;28;20644;-66
2022/04/30 06:27:40;;;;;;;2.05;1.90;;;;;;;17.54;95.11;91264.72;5022373;28;20041;-63
2022/04/30 06:30:07;;;;;;;3.70;3.08;;;;;;;17.19;100.00;91267.94;5019890;28;20036;-66
2022/04/30 06:32:34;;;;;;;1.98;1.88;;;;;;;15.46;100.00;91266.53;5019943;28;20487;-65
2022/04/30 06:35:00;;;;;;;2.45;2.25;;;;;;;13.85;100.00;91264.97;5018076;28;20092;-67
2022/04/30 06:37:25;;;;;;;3.80;3.05;;;;;;;13.99;100.00;91260.22;5015792;28;20484;-68
2022/04/30 06:39:51;;;;;;;1.80;1.70;;;;;;;13.84;100.00;91263.41;5002928;28;20081;-67
2022/04/30 06:42:17;;;;;;;2.80;2.28;;;;;;;13.47;100.00;91260.34;5020020;28;20136;-69
2022/04/30 06:44:43;;;;;;;2.42;2.22;;;;;;;13.13;100.00;91269.19;5020233;28;20044;-70
2022/04/30 06:47:08;;;;;;;2.15;1.92;;;;;;;13.13;100.00;91265.72;5003056;28;20050;-67
2022/04/30 06:49:34;;;;;;;2.88;2.67;;;;;;;13.09;100.00;91259.41;5020091;28;20073;-67
2022/04/30 06:51:59;;;;;;;2.92;2.42;;;;;;;12.93;100.00;91255.66;5018907;28;20190;-67
2022/04/30 06:57:12;;;;;;;2.60;2.40;;;;;;;12.34;100.00;91260.63;5026997;28;20129;-67
2022/04/30 06:59:41;;;;;;;3.22;2.92;;;;;;;12.57;100.00;91267.41;5024119;28;20087;-68
2022/04/30 07:02:19;;;;;;;3.13;2.50;;;;;;;12.78;100.00;91263.06;5023571;28;20033;-70
2022/04/30 07:04:46;;;;;;;2.53;2.10;;;;;;;12.72;100.00;91258.94;5020642;28;20036;-68
2022/04/30 07:07:13;;;;;;;3.60;2.70;;;;;;;12.99;100.00;91263.22;5020003;28;20033;-68
2022/04/30 07:09:38;;;;;;;2.60;2.40;;;;;;;13.27;100.00;91266.38;5013324;28;20145;-66
2022/04/30 07:12:06;;;;;;;1.77;1.67;;;;;;;13.15;100.00;91266.19;5015907;28;20116;-70
2022/04/30 07:14:36;;;;;;;2.17;2.05;;;;;;;14.11;100.00;91251.50;5022084;28;20041;-66
2022/04/30 07:17:09;;;;;;;2.17;2.03;;;;;;;18.23;94.12;91258.88;5022488;28;20038;-66
2022/04/30 07:19:35;;;;;;;;;;;;;;;20.52;70.35;91265.28;5018191;28;20096;-68
2022/04/30 07:22:01;;;;;;;2.35;2.13;;;;;;;20.98;65.21;91270.63;5019448;28;19920;-64
2022/04/30 07:24:27;;;;;;;1.73;1.63;;;;;;;17.48;78.01;91271.44;5022657;28;20549;-67
2022/04/30 07:26:53;;;;;;;2.50;2.30;;;;;;;18.57;80.36;91275.47;5021313;28;20554;-69
2022/04/30 07:29:18;;;;;;;2.22;2.13;;;;;;;17.52;79.26;91277.72;5021264;28;20079;-68
2022/04/30 07:31:44;;;;;;;3.40;2.60;;;;;;;17.23;85.23;91265.38;5022609;28;20045;-68
2022/04/30 07:34:09;;;;;;;2.97;2.63;;;;;;;16.75;90.07;91264.34;5023131;28;20126;-68
2022/04/30 07:36:36;;;;;;;2.03;1.92;;;;;;;16.99;95.50;91269.66;5013840;28;20042;-68
2022/04/30 07:39:01;;;;;;;3.00;2.28;;;;;;;17.30;90.09;91277.09;5012812;28;20492;-69
2022/04/30 07:41:27;;;;;;;1.60;1.50;;;;;;;16.11;91.27;91268.44;5012806;28;20061;-68
2022/04/30 07:43:52;;;;;;;2.70;2.50;;;;;;;15.63;100.00;91263.75;5012683;28;20042;-67
2022/04/30 07:46:18;;;;;;;2.30;2.13;;;;;;;15.78;100.00;91268.47;5017699;28;20061;-68
2022/04/30 07:48:43;;;;;;;2.65;2.45;;;;;;;16.47;95.87;91274.94;5014769;28;20034;-70
2022/04/30 07:51:18;;;;;;;2.15;1.95;;;;;;;17.46;83.29;91269.09;5020280;28;20037;-69
2022/04/30 07:53:46;;;;;;;1.80;1.65;;;;;;;16.10;84.98;91266.09;5021280;28;20181;-69
2022/04/30 07:56:14;;;;;;;2.13;1.92;;;;;;;16.22;86.73;91262.63;5029360;28;20044;-69
2022/04/30 07:58:39;;;;;;;2.58;2.20;;;;;;;17.40;81.93;91269.69;5032225;28;20479;-69
2022/04/30 08:01:05;;;;;;;2.67;2.47;;;;;;;18.95;77.77;91256.00;5032290;28;20048;-69
2022/04/30 08:03:32;;;;;;;6.68;3.65;;;;;;;19.86;68.84;91252.09;5031548;28;20045;-74
2022/04/30 08:05:57;;;;;;;3.45;2.47;;;;;;;19.03;67.71;91260.38;5031831;28;20195;-68
2022/04/30 08:08:23;;;;;;;4.80;2.13;;;;;;;18.09;74.54;91263.91;5031084;28;20124;-70
2022/04/30 08:10:48;;;;;;;1.90;1.80;;;;;;;17.60;76.88;91263.34;5031829;28;20087;-70
2022/04/30 08:13:14;;;;;;;1.75;1.65;;;;;;;17.12;82.01;91256.22;5017731;28;20038;-69
2022/04/30 08:15:43;;;;;;;3.03;2.33;;;;;;;17.49;82.91;91252.28;5012300;28;20072;-68
2022/04/30 08:18:10;;;;;;;2.35;2.15;;;;;;;17.67;81.52;91263.50;5012360;28;20030;-68
2022/04/30 08:20:37;;;;;;;4.10;2.42;;;;;;;17.73;80.20;91261.41;5011792;28;20038;-67
2022/04/30 08:23:04;;;;;;;2.50;2.30;;;;;;;16.98;82.21;91265.41;5019728;28;20038;-67
2022/04/30 08:25:29;;;;;;;2.47;1.70;;;;;;;16.99;80.99;91250.84;5016459;28;20053;-72
2022/04/30 08:27:58;;;;;;;2.22;2.13;;;;;;;17.21;77.54;91251.50;5031941;28;20026;-70
2022/04/30 08:30:29;;;;;;;2.30;2.05;;;;;;;18.23;76.48;91250.00;5032779;28;20053;-69
2022/04/30 08:32:57;;;;;;;2.28;1.85;;;;;;;18.91;69.58;91259.72;5014900;28;20045;-70
2022/04/30 08:35:27;;;;;;;2.00;1.85;;;;;;;18.07;70.24;91255.38;5009365;28;20030;-68
2022/04/30 08:37:56;;;;;;;2.30;2.10;;;;;;;17.11;72.97;91258.13;5014042;28;20044;-69
2022/04/30 08:40:35;;;;;;;2.97;2.15;;;;;;;17.46;73.89;91236.03;5013472;28;20120;-67
2022/04/30 08:43:14;;;;;;;2.17;1.98;;;;;;;17.29;75.41;91258.63;4995293;28;20049;-68
2022/04/30 08:45:45;;;;;;;2.42;1.80;;;;;;;17.37;72.64;91260.41;4998137;28;20042;-69
2022/04/30 08:48:13;;;;;;;1.65;1.55;;;;;;;18.07;66.99;91239.22;5012184;28;20455;-64
2022/04/30 08:50:40;;;;;;;2.83;2.50;;;;;;;18.92;66.23;91248.59;5011395;28;20037;-68
2022/04/30 08:53:06;;;;;;;1.50;1.40;;;;;;;19.09;65.65;91252.81;5011655;28;20034;-67
2022/04/30 08:55:33;;;;;;;2.15;1.70;;;;;;;18.99;66.42;91253.38;5024513;28;20522;-68
2022/04/30 08:57:59;;;;;;;3.08;2.78;;;;;;;20.24;63.37;91243.16;5031084;28;20337;-67
2022/04/30 09:00:25;;;;;;;3.35;2.35;;;;;;;20.52;63.24;91254.47;5019587;28;20572;-68
2022/04/30 09:02:55;;;;;;;2.22;2.03;;;;;;;21.14;57.79;91252.31;5011499;28;20038;-68
2022/04/30 09:05:22;;;;;;;2.33;2.13;;;;;;;21.63;54.03;91256.88;5011098;28;20041;-68
2022/04/30 09:07:57;;;;;;;1.88;1.77;;;;;;;20.51;53.75;91231.28;5011448;28;20045;-68
2022/04/30 09:10:24;;;;;;;3.22;1.58;;;;;;;22.93;51.33;91250.47;5011333;28;20038;-69
2022/04/30 09:12:53;;;;;;;2.72;1.73;;;;;;;24.36;49.38;91240.34;4993565;28;20401;-68
2022/04/30 09:15:19;;;;;;;2.30;1.88;;;;;;;25.98;45.55;91251.53;5011097;28;20045;-68
2022/04/30 09:17:56;;;;;;;4.50;3.50;;;;;;;24.31;47.30;91246.97;5011127;28;20419;-70
2022/04/30 09:20:22;;;;;;;3.05;2.10;;;;;;;25.30;47.18;91238.06;5010672;28;20038;-69
2022/04/30 09:22:47;;;;;;;3.33;2.45;;;;;;;24.69;48.42;91234.56;5011270;28;20044;-68
2022/04/30 09:25:15;;;;;;;3.08;2.05;;;;;;;24.34;45.55;91239.97;5010535;28;20037;-68
2022/04/30 09:27:51;;;;;;;2.97;2.03;;;;;;;23.59;48.39;91232.28;5010308;28;20570;-69
2022/04/30 09:30:25;;;;;;;1.75;1.63;;;;;;;25.54;44.25;91230.22;5010378;28;20168;-70
2022/04/30 09:33:04;;;;;;;1.70;1.60;;;;;;;25.66;40.05;91235.25;5010347;28;20407;-67
2022/04/30 09:38:15;;;;;;;1.83;1.70;;;;;;;24.03;43.22;91216.94;5019824;28;20048;-66
2022/04/30 09:40:55;;;;;;;2.67;1.63;;;;;;;27.91;37.72;91218.13;5017732;28;20472;-70
2022/04/30 09:43:27;;;;;;;2.95;1.90;;;;;;;29.95;36.69;91214.66;5012395;28;20143;-71
2022/04/30 09:45:58;;;;;;;4.07;2.20;;;;;;;29.30;37.90;91214.25;4992812;28;20519;-69
2022/04/30 09:53:58;;;;;;;3.17;2.03;;;;;;;27.44;36.43;91217.81;5010675;28;20072;-69
2022/04/30 09:56:45;;;;;;;1.65;1.50;;;;;;;27.19;38.79;91212.63;5010338;28;20101;-69
2022/04/30 09:59:13;;;;;;;2.00;1.75;;;;;;;26.64;36.49;91207.16;5010055;28;20095;-70
2022/04/30 10:01:44;;;;;;;1.70;1.60;;;;;;;25.33;39.39;91204.59;5010068;28;20049;-70
2022/04/30 10:04:15;;;;;;;1.50;1.40;;;;;;;24.76;40.03;91198.41;5010173;28;20458;-70
2022/04/30 10:06:49;;;;;;;1.52;1.42;;;;;;;21.69;44.70;91200.47;5007226;28;20026;-70
2022/04/30 10:09:22;;;;;;;1.88;1.70;;;;;;;21.96;45.86;91198.44;5010258;28;20511;-69
2022/04/30 10:12:06;;;;;;;1.85;1.75;;;;;;;20.52;47.70;91200.41;5010036;28;20030;-70
2022/04/30 10:14:57;;;;;;;1.40;1.30;;;;;;;19.08;48.63;91191.91;5010100;28;20026;-69
2022/04/30 10:17:25;;;;;;;1.50;1.40;;;;;;;18.87;52.30;91189.56;5009893;28;20467;-69
2022/04/30 10:20:07;;;;;;;1.60;1.50;;;;;;;18.70;52.08;91179.94;5009929;28;20427;-69
2022/04/30 10:22:33;;;;;;;2.20;1.60;;;;;;;18.52;52.29;91184.13;5010094;28;20084;-69
2022/04/30 10:24:59;;;;;;;2.88;1.70;;;;;;;18.05;54.23;91178.78;4970968;28;1142805;-69
2022/04/30 10:27:38;;;;;;;3.55;2.53;;;;;;;17.77;55.09;91173.47;5012411;28;20033;-69
2022/04/30 10:30:07;;;;;;;2.47;1.63;;;;;;;17.65;57.23;91179.66;5014613;28;20042;-69
2022/04/30 10:32:37;;;;;;;1.73;1.60;;;;;;;17.69;58.15;91179.81;5014574;28;20060;-69
2022/04/30 10:35:04;;;;;;;1.23;1.13;;;;;;;17.21;55.28;91174.31;5014553;28;20049;-69
2022/04/30 10:37:31;;;;;;;1.70;1.60;;;;;;;17.08;58.89;91178.16;5014011;28;20574;-69
2022/04/30 10:40:04;;;;;;;2.25;2.00;;;;;;;17.40;59.24;91178.25;5013944;28;20080;-70
2022/04/30 10:42:38;;;;;;;1.80;1.60;;;;;;;17.63;58.27;91174.63;5014141;28;20041;-69
2022/04/30 10:45:05;;;;;;;3.00;2.20;;;;;;;17.45;59.63;91186.06;5014221;28;20080;-69
2022/04/30 10:47:30;;;;;;;2.15;1.63;;;;;;;17.45;61.34;91178.78;5014091;28;20025;-71
2022/04/30 10:49:56;;;;;;;2.08;1.88;;;;;;;17.49;60.18;91168.88;5014072;28;20049;-69
2022/04/30 10:52:24;;;;;;;2.65;2.20;;;;;;;17.70;60.64;91168.69;5014058;28;20484;-70
2022/04/30 10:54:50;;;;;;;1.73;1.63;;;;;;;17.91;59.49;91171.91;5013984;28;20030;-69
2022/04/30 10:57:16;;;;;;;1.50;1.40;;;;;;;17.87;55.66;91165.69;5013969;28;20525;-69
2022/04/30 10:59:41;;;;;;;3.00;1.80;;;;;;;18.51;53.05;91172.56;5013882;28;20041;-69
2022/04/30 11:02:11;;;;;;;1.75;1.52;;;;;;;18.75;53.32;91170.81;5013690;28;20045;-69
2022/04/30 11:04:36;;;;;;;1.52;1.42;;;;;;;20.69;53.79;91176.72;5013869;28;20042;-69
2022/04/30 11:07:02;;;;;;;1.63;1.52;;;;;;;22.69;46.63;91166.94;5013824;28;20092;-69
2022/04/30 11:09:28;;;;;;;1.40;1.20;;;;;;;22.09;48.15;91178.88;5013702;28;20038;-69
2022/04/30 11:11:53;;;;;;;2.25;1.85;;;;;;;21.56;50.64;91183.69;5013746;28;20088;-70
2022/04/30 11:14:22;;;;;;;2.83;2.63;;;;;;;22.30;49.09;91174.78;5013582;28;20053;-69
2022/04/30 11:16:51;;;;;;;2.15;1.92;;;;;;;21.99;45.84;91171.38;5013451;28;20057;-69
2022/04/30 11:19:20;;;;;;;1.60;1.50;;;;;;;22.27;45.35;91172.81;5013516;28;20073;-69
2022/04/30 11:21:55;;;;;;;4.65;2.33;;;;;;;20.91;49.17;91167.75;5013446;28;20041;-69
2022/04/30 11:24:31;;;;;;;2.53;2.25;;;;;;;20.69;48.80;91161.28;5013489;28;20117;-69
2022/04/30 11:27:03;;;;;;;2.00;1.88;;;;;;;21.12;48.91;91165.31;5014383;28;20061;-69
2022/04/30 11:29:30;;;;;;;2.80;2.00;;;;;;;20.94;48.28;91169.72;5014836;28;20088;-69
2022/04/30 11:31:57;;;;;;;4.72;2.53;;;;;;;21.15;50.22;91171.94;5013926;28;20284;-69
2022/04/30 11:34:23;;;;;;;1.85;1.45;;;;;;;21.60;50.01;91154.69;5013630;28;20042;-69
2022/04/30 11:36:51;;;;;;;1.50;1.40;;;;;;;22.88;47.61;91160.50;5013513;28;20033;-69
2022/04/30 11:39:18;;;;;;;3.80;1.70;;;;;;;25.71;42.05;91166.75;4994587;28;20516;-69
2022/04/30 11:41:45;;;;;;;1.50;1.40;;;;;;;26.91;36.48;91156.25;5013107;28;20049;-69
2022/04/30 11:44:15;;;;;;;4.55;2.10;;;;;;;25.76;39.74;91155.47;5013016;28;20088;-69
2022/04/30 11:46:44;;;;;;;3.05;2.10;;;;;;;24.99;41.08;91151.75;5013125;28;20038;-69
2022/04/30 11:49:19;;;;;;;2.05;1.58;;;;;;;24.90;39.71;91159.53;5013589;28;20057;-69
2022/04/30 11:51:46;;;;;;;1.83;1.48;;;;;;;24.07;42.55;91145.09;4995058;28;20111;-69
2022/04/30 11:54:15;;;;;;;2.25;1.40;;;;;;;23.56;41.35;91142.63;4995401;28;20400;-69
2022/04/30 11:56:42;;;;;;;1.95;1.85;;;;;;;22.26;42.82;91144.94;5012967;28;20111;-71
2022/04/30 11:59:09;;;;;;;3.00;1.73;;;;;;;20.70;46.02;91151.25;5013049;28;20034;-70
2022/04/30 12:01:39;;;;;;;2.00;1.55;;;;;;;21.14;44.88;91160.31;5012798;28;20044;-71